Fort Lauderdale, FL (33320)

9:38 PM EDT on July 31, 2015 (GMT -0400)
Victoria Park | | Change Station
CLOSE
Current Station
Personal Weather Station
Location: Fort Lauderdale, FL
Elevation: 30 ft
Nearby Weather Stations

Elev 30 ft 26.13 °N, 80.13 °W | Updated 5 seconds ago

Overcast
Overcast
76.8 °F
Feels Like 77 °F
N
0.0
Wind Variable Wind from NW

Today
High -- | Low -- °F
--% Chance of Precip.
Yesterday
High -- | Low -- °F
Precip. -- in
6:45 AM 8:07 PM
Waxing Gibbous, 99% visible
Pressure 30.04 in
Visibility 10.0 miles
Clouds Clear
Heat Index 77 °F
Dew Point 75 °F
Humidity 94%
Rainfall 0.45 in
Snow Depth Not available.
UV 0 out of 12
Pollen 2.40 out of 12
Air Quality Not available.
Flu Activity Not available.
METAR KFXE 010053Z 00000KT 10SM CLR 26/20 A3003 RMK AO2 SLP170 T02610200

More Conditions Fewer Conditions

Pressure 30.04 in
Visibility 10.0 miles
Clouds Clear
Heat Index 77 °F
Dew Point 75 °F
Humidity 94%
Rainfall 0.45 in
Snow Depth Not available.
UV 0 out of 12
Pollen 2.40 out of 12
Air Quality Not available.
Flu Activity Not available.
METAR KFXE 010053Z 00000KT 10SM CLR 26/20 A3003 RMK AO2 SLP170 T02610200

More Conditions Fewer Conditions

Nowcast | as of 8:16 PM EDT on July 31, 2015

Scattered showers and thunderstorms continue to slowly push to the northeast across mainly areas south of Alligator alley this evening. Light to moderate rain with a few embedded thunderstorms are also seen across Palm Beach County and the Atlantic waters.

×

10-Day Weather Forecast

×

Almanac

Astronomy

Jul. 31, 2015 Rise Set
Actual Time
Civil Twilight
Nautical Twilight
Astronomical Twilight
Moon
Length of Visible Light
Length of Day
Tomorrow will be .
, % of the Moon is Illuminated

Today's Extremes

State Highs State Lows

Community

WunderPhotos

Upload Photos

1,842,799 photos uploaded!

WunderBlogs® & News

Nearby

Air Quality

  Air Quality AQ Index Pollutant
Not available.

Snow Depth

Station Depth Elevation

Earthquake Activity

City Distance Mag. Time & Date
Minimum magnitude displayed is 2.5.

Coastal Water Temperatures

Place Temperature

Stations

Nearby Weather Stations

Station Location Temp. Windchill Dew Point Humidity Wind Precip. Elev Updated Type